createdAt,value
2018-02-02T00:01:07.884Z,37.00
2018-02-02T00:03:37.469Z,39.27
2018-02-02T00:06:03.460Z,47.87
2018-02-02T00:08:29.465Z,73.37
2018-02-02T00:10:55.477Z,66.87
2018-02-02T00:16:07.025Z,44.80
2018-02-02T00:18:32.998Z,43.83
2018-02-02T00:20:58.980Z,44.37
2018-02-02T00:23:26.088Z,50.23
2018-02-02T00:25:52.131Z,47.87
2018-02-02T00:28:18.197Z,41.87
2018-02-02T00:30:44.161Z,48.83
2018-02-02T00:33:14.128Z,45.27
2018-02-02T00:35:40.101Z,46.97
2018-02-02T00:38:06.109Z,44.60
2018-02-02T00:40:32.131Z,44.90
2018-02-02T00:42:58.144Z,61.73
2018-02-02T00:45:24.164Z,67.20
2018-02-02T00:47:50.173Z,49.93
2018-02-02T00:50:16.229Z,44.97
2018-02-02T00:52:42.213Z,42.10
2018-02-02T00:55:13.030Z,39.83
2018-02-02T00:57:39.044Z,36.67
2018-02-02T01:00:05.065Z,41.37
2018-02-02T01:02:31.040Z,38.93
2018-02-02T01:04:58.057Z,32.97
2018-02-02T01:07:24.075Z,36.57
2018-02-02T01:09:50.057Z,36.00
2018-02-02T01:12:16.085Z,36.67
2018-02-02T01:14:50.006Z,33.13
2018-02-02T01:17:16.024Z,38.70
2018-02-02T01:19:42.045Z,39.13
2018-02-02T01:22:08.024Z,29.87
2018-02-02T01:24:40.565Z,38.70
2018-02-02T01:27:06.577Z,35.23
2018-02-02T01:29:32.565Z,31.73
2018-02-02T01:31:58.545Z,34.93
2018-02-02T01:34:29.345Z,42.50
2018-02-02T01:36:55.366Z,38.73
2018-02-02T01:39:21.396Z,38.43
2018-02-02T01:41:47.416Z,44.87
2018-02-02T01:44:26.930Z,48.13
2018-02-02T01:46:52.917Z,38.27
2018-02-02T01:49:18.933Z,37.90
2018-02-02T01:51:44.953Z,36.13
2018-02-02T01:54:14.332Z,36.77
2018-02-02T01:56:40.314Z,33.30
2018-02-02T01:59:06.308Z,32.43
2018-02-02T02:01:32.390Z,34.63
2018-02-02T02:04:06.794Z,32.60
2018-02-02T02:06:32.817Z,28.67
2018-02-02T02:08:58.837Z,29.50
2018-02-02T02:11:24.816Z,29.77
2018-02-02T02:13:53.961Z,28.43
2018-02-02T02:16:19.973Z,26.80
2018-02-02T02:18:45.988Z,29.53
2018-02-02T02:21:12.088Z,28.87
2018-02-02T02:23:44.924Z,26.07
2018-02-02T02:26:10.904Z,28.83
2018-02-02T02:28:36.921Z,31.50
2018-02-02T02:31:02.897Z,27.73
2018-02-02T02:33:34.168Z,27.40
2018-02-02T02:36:00.184Z,29.00
2018-02-02T02:38:26.196Z,29.07
2018-02-02T02:40:52.209Z,28.77
2018-02-02T02:43:25.020Z,28.60
2018-02-02T02:45:51.048Z,28.27
2018-02-02T02:48:17.065Z,28.37
2018-02-02T02:50:43.049Z,29.87
2018-02-02T02:53:12.553Z,28.77
2018-02-02T02:55:38.564Z,30.40
2018-02-02T02:58:04.577Z,29.43
2018-02-02T03:00:30.613Z,30.33
2018-02-02T03:05:45.453Z,33.47
2018-02-02T03:08:11.431Z,31.77
2018-02-02T03:10:37.459Z,36.23
2018-02-02T03:13:09.388Z,32.07
2018-02-02T03:15:35.372Z,31.27
2018-02-02T03:18:01.393Z,31.13
2018-02-02T03:20:27.415Z,34.17
2018-02-02T03:22:59.489Z,31.23
2018-02-02T03:25:25.509Z,33.37
2018-02-02T03:27:51.489Z,33.87
2018-02-02T03:30:17.513Z,32.83
2018-02-02T03:32:43.537Z,33.40
2018-02-02T03:35:09.508Z,33.27
2018-02-02T03:37:35.489Z,30.87
2018-02-02T03:40:01.504Z,33.50
2018-02-02T03:42:27.523Z,32.80
2018-02-02T03:45:00.857Z,31.47
2018-02-02T03:47:26.864Z,33.53
2018-02-02T03:49:52.877Z,31.33
2018-02-02T03:52:18.856Z,31.73
2018-02-02T03:54:48.424Z,28.70
2018-02-02T03:57:14.433Z,31.67
2018-02-02T03:59:40.440Z,30.47
2018-02-02T04:02:06.500Z,29.73
2018-02-02T04:04:37.524Z,28.07
2018-02-02T04:07:03.533Z,28.57
2018-02-02T04:09:29.517Z,29.07
2018-02-02T04:11:55.509Z,35.90
2018-02-02T04:14:24.792Z,35.63
2018-02-02T04:16:50.772Z,33.63
2018-02-02T04:19:16.812Z,29.13
2018-02-02T04:21:42.784Z,29.20
2018-02-02T04:24:22.412Z,27.60
2018-02-02T04:26:48.392Z,25.03
2018-02-02T04:29:14.448Z,25.53
2018-02-02T04:31:40.435Z,24.83
2018-02-02T04:34:10.135Z,26.40
2018-02-02T04:36:36.227Z,27.27
2018-02-02T04:39:02.289Z,25.50
2018-02-02T04:41:28.305Z,23.67
2018-02-02T04:44:04.342Z,24.37
2018-02-02T04:46:30.333Z,26.47
2018-02-02T04:48:56.369Z,24.13
2018-02-02T04:51:22.353Z,24.07
2018-02-02T04:53:51.536Z,24.60
2018-02-02T04:56:17.512Z,25.40
2018-02-02T04:58:43.521Z,26.20
2018-02-02T05:01:09.536Z,26.70
2018-02-02T05:03:40.849Z,25.37
2018-02-02T05:06:06.865Z,27.43
2018-02-02T05:08:32.885Z,24.17
2018-02-02T05:10:58.854Z,24.77
2018-02-02T05:13:26.081Z,25.73
2018-02-02T05:15:52.116Z,27.33
2018-02-02T05:18:18.135Z,25.70
2018-02-02T05:20:44.113Z,32.63
2018-02-02T05:23:14.080Z,26.97
2018-02-02T05:25:40.103Z,31.70
2018-02-02T05:28:06.120Z,34.13
2018-02-02T05:30:32.144Z,27.17
2018-02-02T05:33:01.640Z,28.93
2018-02-02T05:35:27.697Z,28.33
2018-02-02T05:37:53.709Z,29.37
2018-02-02T05:40:19.724Z,26.20
2018-02-02T05:42:49.688Z,28.07
2018-02-02T05:45:15.674Z,25.67
2018-02-02T05:47:41.693Z,33.30
2018-02-02T05:50:07.669Z,32.60
2018-02-02T05:55:22.037Z,30.93
2018-02-02T05:57:48.061Z,33.00
2018-02-02T06:00:14.059Z,31.20
2018-02-02T06:02:48.618Z,33.47
2018-02-02T06:05:14.637Z,38.90
2018-02-02T06:07:40.620Z,43.30
2018-02-02T06:10:06.640Z,37.83
2018-02-02T06:12:50.777Z,33.77
2018-02-02T06:15:16.753Z,37.50
2018-02-02T06:17:42.771Z,39.87
2018-02-02T06:20:08.765Z,31.60
2018-02-02T06:22:42.092Z,34.83
2018-02-02T06:25:08.110Z,33.60
2018-02-02T06:27:34.133Z,38.03
2018-02-02T06:30:00.151Z,34.13
2018-02-02T06:32:28.268Z,34.07
2018-02-02T06:34:54.281Z,32.17
2018-02-02T06:37:20.265Z,37.97
2018-02-02T06:39:46.240Z,32.70
2018-02-02T06:42:12.252Z,34.53
2018-02-02T06:44:38.269Z,35.70
2018-02-02T06:47:04.258Z,33.57
2018-02-02T06:49:30.279Z,36.20
2018-02-02T06:51:56.301Z,35.47
2018-02-02T06:54:22.301Z,36.13
2018-02-02T07:03:30.449Z,37.43
2018-02-02T07:05:56.437Z,37.50
2018-02-02T07:08:22.453Z,34.40
2018-02-02T07:10:48.476Z,36.23
2018-02-02T07:13:26.233Z,45.10
2018-02-02T07:15:52.253Z,41.20
2018-02-02T07:18:18.281Z,40.67
2018-02-02T07:20:44.314Z,38.70
2018-02-02T07:23:11.399Z,39.40
2018-02-02T07:25:37.356Z,41.23
2018-02-02T07:28:03.376Z,42.00
2018-02-02T07:30:29.398Z,45.20
2018-02-02T07:32:59.897Z,46.80
2018-02-02T07:35:25.916Z,54.73
2018-02-02T07:37:51.933Z,51.90
2018-02-02T07:40:17.944Z,44.13
2018-02-02T07:42:47.965Z,31.57
2018-02-02T07:45:13.976Z,31.37
2018-02-02T07:47:39.953Z,27.80
2018-02-02T07:50:05.965Z,25.10
2018-02-02T07:52:34.212Z,24.77
2018-02-02T07:55:00.188Z,28.80
2018-02-02T07:57:26.210Z,30.03
2018-02-02T07:59:52.192Z,34.07
2018-02-02T08:02:23.002Z,44.60
2018-02-02T08:04:49.053Z,45.73
2018-02-02T08:07:15.090Z,53.73
2018-02-02T08:09:41.137Z,65.80
2018-02-02T08:12:08.233Z,54.00
2018-02-02T08:14:34.208Z,59.40
2018-02-02T08:17:00.192Z,42.20
2018-02-02T08:19:26.201Z,126.53
2018-02-02T08:21:52.213Z,145.90
2018-02-02T08:24:18.196Z,253.63
2018-02-02T08:26:44.247Z,272.50
2018-02-02T08:29:10.228Z,127.93
2018-02-02T08:31:36.240Z,56.73
2018-02-02T08:34:03.282Z,39.90
2018-02-02T08:36:29.302Z,36.67
2018-02-02T08:38:55.324Z,34.77
2018-02-02T08:41:21.325Z,42.07
2018-02-02T08:43:52.641Z,35.23
2018-02-02T08:46:18.676Z,34.10
2018-02-02T08:48:44.692Z,34.87
2018-02-02T08:51:10.713Z,24.80
2018-02-02T08:53:47.635Z,22.93
2018-02-02T08:56:13.654Z,21.27
2018-02-02T08:58:39.641Z,20.67
2018-02-02T09:01:11.656Z,20.40
2018-02-02T09:03:39.703Z,19.70
2018-02-02T09:06:05.731Z,17.87
2018-02-02T09:08:31.753Z,24.13
2018-02-02T09:10:57.769Z,21.30
2018-02-02T09:13:32.958Z,22.83
2018-02-02T09:15:58.981Z,21.63
2018-02-02T09:18:24.972Z,18.13
2018-02-02T09:20:50.980Z,17.87
2018-02-02T09:23:17.077Z,18.13
2018-02-02T09:25:43.097Z,17.20
2018-02-02T09:28:09.085Z,18.10
2018-02-02T09:30:35.106Z,19.43
2018-02-02T09:33:05.117Z,12.27
2018-02-02T09:35:31.157Z,14.67
2018-02-02T09:37:57.176Z,17.40
2018-02-02T09:40:23.197Z,12.40
2018-02-02T09:42:50.360Z,12.80
2018-02-02T09:45:16.378Z,12.00
2018-02-02T09:47:42.438Z,12.13
2018-02-02T09:50:08.461Z,12.30
2018-02-02T09:52:38.389Z,11.97
2018-02-02T09:55:04.416Z,12.00
2018-02-02T09:57:30.401Z,12.87
2018-02-02T09:59:56.669Z,15.03
2018-02-02T10:02:22.848Z,13.13
2018-02-02T10:04:48.825Z,11.47
2018-02-02T10:07:14.886Z,10.50
2018-02-02T10:09:40.921Z,12.27
2018-02-02T10:12:07.008Z,11.83
2018-02-02T10:14:33.037Z,11.07
2018-02-02T10:16:59.021Z,11.17
2018-02-02T10:19:25.037Z,10.60
2018-02-02T10:21:56.100Z,12.73
2018-02-02T10:24:22.129Z,11.43
2018-02-02T10:26:48.137Z,11.00
2018-02-02T10:29:14.152Z,12.83
2018-02-02T10:31:43.848Z,10.90
2018-02-02T10:34:09.836Z,10.97
2018-02-02T10:36:35.822Z,10.70
2018-02-02T10:39:01.894Z,11.10
2018-02-02T10:41:27.905Z,10.87
2018-02-02T10:43:53.921Z,11.40
2018-02-02T10:46:19.908Z,10.53
2018-02-02T10:48:45.993Z,11.03
2018-02-02T10:51:12.021Z,10.67
2018-02-02T10:53:39.229Z,10.70
2018-02-02T10:56:05.212Z,9.97
2018-02-02T10:58:31.193Z,9.73
2018-02-02T11:01:03.168Z,10.10
2018-02-02T11:03:34.244Z,10.10
2018-02-02T11:06:00.229Z,10.50
2018-02-02T11:08:26.212Z,10.30
2018-02-02T11:10:52.233Z,9.70
2018-02-02T11:13:22.734Z,9.80
2018-02-02T11:15:48.752Z,9.47
2018-02-02T11:18:14.865Z,9.50
2018-02-02T11:20:40.881Z,8.97
2018-02-02T11:23:10.504Z,8.87
2018-02-02T11:25:36.529Z,8.73
2018-02-02T11:28:02.526Z,9.87
2018-02-02T11:30:28.557Z,9.33
2018-02-02T11:32:54.705Z,8.53
2018-02-02T11:35:20.724Z,9.07
2018-02-02T11:37:46.756Z,9.47
2018-02-02T11:40:12.740Z,10.20
2018-02-02T11:42:46.400Z,9.77
2018-02-02T11:45:12.425Z,9.30
2018-02-02T11:47:38.404Z,9.03
2018-02-02T11:50:04.425Z,9.83
2018-02-02T11:52:31.508Z,9.23
2018-02-02T11:54:57.529Z,8.73
2018-02-02T11:57:23.568Z,8.93
2018-02-02T11:59:49.540Z,8.93
2018-02-02T12:02:16.792Z,9.63
2018-02-02T12:04:42.815Z,10.00
2018-02-02T12:07:08.889Z,8.93
2018-02-02T12:09:34.913Z,9.10
2018-02-02T12:12:01.036Z,8.87
2018-02-02T12:14:27.053Z,8.70
2018-02-02T12:16:53.089Z,9.67
2018-02-02T12:19:19.189Z,8.77
2018-02-02T12:22:03.217Z,9.30
2018-02-02T12:24:48.028Z,9.33
2018-02-02T12:30:30.390Z,13.35
2018-02-02T12:35:46.196Z,12.30
2018-02-02T12:38:12.252Z,10.60
2018-02-02T12:40:38.325Z,9.03
2018-02-02T12:43:09.280Z,9.53
2018-02-02T12:45:35.305Z,10.17
2018-02-02T12:48:01.331Z,9.67
2018-02-02T12:50:33.781Z,9.43
2018-02-02T12:53:01.413Z,9.47
2018-02-02T12:55:27.429Z,9.37
2018-02-02T12:57:53.437Z,9.70
2018-02-02T13:00:20.377Z,10.30
2018-02-02T13:02:55.164Z,11.70
2018-02-02T13:05:21.141Z,10.13
2018-02-02T13:07:47.194Z,10.30
2018-02-02T13:10:13.213Z,10.73
2018-02-02T13:12:46.055Z,10.43
2018-02-02T13:15:12.049Z,11.53
2018-02-02T13:17:38.058Z,11.00
2018-02-02T13:20:04.046Z,10.63
2018-02-02T13:22:36.606Z,11.43
2018-02-02T13:25:02.672Z,11.07
2018-02-02T13:27:28.693Z,10.53
2018-02-02T13:29:54.677Z,11.00
2018-02-02T13:32:22.657Z,11.90
2018-02-02T13:34:48.666Z,11.23
2018-02-02T13:37:14.661Z,10.53
2018-02-02T13:39:40.677Z,12.30
2018-02-02T13:42:07.760Z,12.00
2018-02-02T13:44:33.741Z,10.90
2018-02-02T13:46:59.756Z,10.97
2018-02-02T13:49:25.732Z,12.67
2018-02-02T13:51:57.537Z,11.37
2018-02-02T13:54:23.541Z,12.33
2018-02-02T13:56:49.525Z,12.53
2018-02-02T13:59:15.528Z,14.83
2018-02-02T14:01:51.573Z,12.17
2018-02-02T14:04:17.578Z,12.70
2018-02-02T14:06:43.588Z,13.67
2018-02-02T14:09:09.605Z,13.13
2018-02-02T14:11:50.149Z,13.57
2018-02-02T14:14:16.146Z,13.57
2018-02-02T14:16:42.163Z,12.87
2018-02-02T14:19:08.153Z,13.47
2018-02-02T14:21:40.129Z,13.77
2018-02-02T14:24:06.120Z,17.13
2018-02-02T14:26:32.133Z,15.70
2018-02-02T14:28:58.121Z,14.63
2018-02-02T14:31:26.373Z,15.80
2018-02-02T14:33:52.378Z,15.07
2018-02-02T14:36:18.401Z,14.83
2018-02-02T14:38:44.424Z,16.87
2018-02-02T14:41:12.585Z,15.53
2018-02-02T14:43:38.612Z,14.80
2018-02-02T14:46:04.633Z,13.80
2018-02-02T14:48:30.652Z,14.80
2018-02-02T14:50:56.676Z,13.67
2018-02-02T14:53:22.696Z,14.60
2018-02-02T14:55:48.712Z,14.73
2018-02-02T14:58:14.743Z,14.47
2018-02-02T15:00:40.753Z,19.50
2018-02-02T15:03:13.912Z,20.43
2018-02-02T15:05:39.984Z,21.07
2018-02-02T15:08:05.972Z,25.73
2018-02-02T15:10:31.985Z,40.23
2018-02-02T15:13:14.791Z,39.67
2018-02-02T15:15:40.885Z,37.20
2018-02-02T15:18:06.925Z,36.03
2018-02-02T15:20:32.969Z,47.50
2018-02-02T15:23:14.837Z,45.90
2018-02-02T15:25:40.882Z,51.93
2018-02-02T15:28:06.905Z,51.63
2018-02-02T15:30:32.964Z,45.13
2018-02-02T15:33:05.173Z,41.70
2018-02-02T15:35:31.210Z,51.90
2018-02-02T15:37:57.243Z,39.83
2018-02-02T15:40:23.273Z,53.00
2018-02-02T15:42:54.133Z,46.00
2018-02-02T15:45:20.174Z,47.37
2018-02-02T15:47:46.166Z,31.17
2018-02-02T15:50:12.258Z,29.73
2018-02-02T15:52:38.366Z,36.43
2018-02-02T15:55:04.357Z,35.17
2018-02-02T15:57:30.344Z,25.40
2018-02-02T15:59:56.360Z,30.13
2018-02-02T16:02:28.188Z,33.27
2018-02-02T16:04:54.230Z,29.87
2018-02-02T16:07:20.222Z,43.70
2018-02-02T16:09:46.241Z,35.33
2018-02-02T16:12:13.381Z,41.27
2018-02-02T16:14:39.401Z,47.70
2018-02-02T16:17:05.434Z,35.33
2018-02-02T16:19:31.461Z,35.37
2018-02-02T16:22:03.580Z,35.67
2018-02-02T16:24:29.653Z,40.13
2018-02-02T16:26:55.647Z,39.33
2018-02-02T16:29:21.654Z,35.20
2018-02-02T16:31:57.792Z,40.67
2018-02-02T16:34:23.818Z,41.33
2018-02-02T16:36:49.893Z,53.90
2018-02-02T16:39:16.009Z,45.83
2018-02-02T16:41:50.962Z,50.50
2018-02-02T16:44:17.077Z,35.50
2018-02-02T16:46:43.187Z,39.93
2018-02-02T16:49:09.209Z,42.20
2018-02-02T16:51:36.457Z,48.23
2018-02-02T16:54:02.537Z,41.17
2018-02-02T16:56:28.604Z,37.50
2018-02-02T16:58:55.434Z,45.27
2018-02-02T17:01:33.905Z,45.10
2018-02-02T17:03:59.968Z,42.17
2018-02-02T17:06:26.877Z,32.83
2018-02-02T17:08:52.953Z,31.57
2018-02-02T17:11:23.695Z,36.87
2018-02-02T17:13:49.776Z,40.20
2018-02-02T17:16:16.380Z,36.33
2018-02-02T17:18:42.479Z,34.80
2018-02-02T17:21:11.537Z,25.27
2018-02-02T17:23:37.561Z,18.70
2018-02-02T17:26:03.563Z,22.97
2018-02-02T17:28:29.599Z,19.30
2018-02-02T17:30:55.605Z,18.73
2018-02-02T17:33:21.629Z,20.83
2018-02-02T17:35:47.648Z,18.67
2018-02-02T17:38:13.638Z,20.50
2018-02-02T17:40:47.421Z,27.63
2018-02-02T17:43:13.405Z,26.03
2018-02-02T17:45:39.447Z,25.20
2018-02-02T17:48:06.041Z,28.67
2018-02-02T17:50:32.077Z,26.80
2018-02-02T17:52:58.104Z,25.57
2018-02-02T17:55:24.147Z,26.50
2018-02-02T17:57:50.184Z,24.77
2018-02-02T18:00:21.069Z,29.50
2018-02-02T18:02:47.110Z,28.20
2018-02-02T18:05:13.240Z,28.87
2018-02-02T18:07:39.310Z,27.63
2018-02-02T18:10:05.381Z,26.60
2018-02-02T18:12:33.453Z,28.03
2018-02-02T18:14:59.477Z,28.30
2018-02-02T18:17:25.478Z,28.93
2018-02-02T18:19:51.545Z,31.03
2018-02-02T18:22:22.778Z,34.57
2018-02-02T18:24:49.675Z,45.53
2018-02-02T18:27:15.690Z,53.97
2018-02-02T18:29:41.929Z,42.93
2018-02-02T18:32:14.881Z,38.17
2018-02-02T18:34:40.879Z,45.77
2018-02-02T18:37:06.906Z,32.37
2018-02-02T18:39:32.944Z,36.00
2018-02-02T18:42:02.182Z,40.77
2018-02-02T18:44:29.520Z,38.57
2018-02-02T18:46:55.554Z,38.17
2018-02-02T18:49:22.133Z,43.00
2018-02-02T18:51:55.417Z,40.07
2018-02-02T18:54:21.493Z,33.83
2018-02-02T18:56:48.489Z,40.90
2018-02-02T18:59:14.529Z,45.33
2018-02-02T19:01:43.744Z,38.83
2018-02-02T19:04:09.734Z,38.37
2018-02-02T19:06:35.765Z,35.20
2018-02-02T19:09:01.786Z,35.70
2018-02-02T19:11:33.265Z,38.63
2018-02-02T19:13:59.254Z,37.63
2018-02-02T19:16:31.461Z,43.27
2018-02-02T19:18:57.450Z,35.57
2018-02-02T19:21:23.517Z,35.50
2018-02-02T19:23:49.543Z,37.13
2018-02-02T19:26:15.529Z,35.47
2018-02-02T19:28:41.508Z,34.70
2018-02-02T19:31:13.709Z,31.77
2018-02-02T19:33:39.697Z,31.17
2018-02-02T19:36:05.738Z,27.77
2018-02-02T19:38:32.073Z,27.90
2018-02-02T19:40:59.169Z,28.90
2018-02-02T19:43:25.150Z,28.87
2018-02-02T19:45:51.203Z,35.47
2018-02-02T19:48:17.253Z,38.87
2018-02-02T19:50:45.333Z,35.23
2018-02-02T19:53:11.378Z,32.23
2018-02-02T19:55:37.449Z,35.60
2018-02-02T19:58:03.536Z,40.63
2018-02-02T20:00:34.425Z,53.30
2018-02-02T20:03:00.415Z,43.87
2018-02-02T20:05:26.417Z,26.37
2018-02-02T20:07:52.445Z,28.73
2018-02-02T20:10:22.241Z,31.80
2018-02-02T20:12:48.260Z,31.67
2018-02-02T20:15:14.344Z,27.83
2018-02-02T20:17:40.361Z,30.30
2018-02-02T20:20:13.090Z,22.50
2018-02-02T20:22:39.118Z,28.40
2018-02-02T20:25:05.135Z,18.43
2018-02-02T20:27:31.119Z,16.27
2018-02-02T20:29:57.147Z,18.10
2018-02-02T20:32:23.213Z,17.50
2018-02-02T20:34:49.278Z,16.73
2018-02-02T20:37:15.313Z,15.97
2018-02-02T20:39:41.376Z,21.77
2018-02-02T20:42:08.384Z,16.17
2018-02-02T20:44:34.373Z,18.30
2018-02-02T20:47:00.389Z,13.77
2018-02-02T20:49:26.414Z,15.97
2018-02-02T20:52:00.056Z,12.83
2018-02-02T20:54:26.065Z,12.60
2018-02-02T20:56:52.085Z,14.27
2018-02-02T20:59:18.121Z,12.13
2018-02-02T21:01:48.301Z,12.13
2018-02-02T21:04:14.320Z,12.03
2018-02-02T21:06:40.391Z,12.00
2018-02-02T21:09:06.369Z,12.47
2018-02-02T21:11:38.981Z,11.50
2018-02-02T21:14:04.969Z,14.40
2018-02-02T21:16:30.952Z,16.33
2018-02-02T21:18:56.991Z,15.10
2018-02-02T21:24:08.445Z,13.40
2018-02-02T21:26:34.469Z,16.40
2018-02-02T21:29:00.453Z,15.13
2018-02-02T21:31:37.553Z,14.73
2018-02-02T21:34:03.593Z,12.07
2018-02-02T21:36:29.582Z,10.43
2018-02-02T21:38:55.593Z,11.33
2018-02-02T21:41:26.053Z,11.47
2018-02-02T21:43:52.077Z,12.63
2018-02-02T21:46:18.066Z,10.30
2018-02-02T21:48:44.093Z,9.83
2018-02-02T21:51:14.100Z,9.77
2018-02-02T21:53:40.112Z,10.00
2018-02-02T21:56:06.104Z,11.70
2018-02-02T21:58:32.121Z,12.33
2018-02-02T22:03:50.885Z,14.73
2018-02-02T22:06:16.905Z,14.00
2018-02-02T22:08:42.916Z,16.83
2018-02-02T22:11:14.972Z,14.03
2018-02-02T22:13:40.993Z,17.00
2018-02-02T22:16:07.018Z,16.23
2018-02-02T22:18:33.028Z,14.67
2018-02-02T22:21:01.254Z,13.87
2018-02-02T22:23:27.233Z,13.70
2018-02-02T22:25:53.236Z,12.90
2018-02-02T22:28:19.291Z,10.33
2018-02-02T22:30:47.493Z,8.50
2018-02-02T22:33:13.501Z,8.97
2018-02-02T22:35:39.509Z,7.90
2018-02-02T22:38:05.525Z,8.83
2018-02-02T22:40:36.809Z,8.77
2018-02-02T22:43:02.797Z,9.50
2018-02-02T22:45:28.777Z,8.97
2018-02-02T22:47:54.789Z,9.07
2018-02-02T22:50:28.504Z,9.40
2018-02-02T22:52:54.525Z,9.73
2018-02-02T22:55:20.540Z,10.30
2018-02-02T22:57:46.597Z,10.83
2018-02-02T23:00:19.077Z,10.73
2018-02-02T23:02:45.081Z,10.83
2018-02-02T23:05:11.085Z,10.80
2018-02-02T23:07:37.097Z,11.17
2018-02-02T23:10:18.708Z,11.13
2018-02-02T23:12:44.716Z,10.90
2018-02-02T23:15:10.697Z,9.37
2018-02-02T23:17:36.700Z,10.40
2018-02-02T23:20:04.858Z,12.40
2018-02-02T23:22:30.912Z,10.30
2018-02-02T23:24:56.916Z,10.00
2018-02-02T23:27:22.920Z,14.90
2018-02-02T23:29:52.334Z,9.03
2018-02-02T23:32:18.312Z,9.30
2018-02-02T23:34:44.320Z,9.00
2018-02-02T23:37:10.356Z,9.43
2018-02-02T23:39:36.336Z,9.37
2018-02-02T23:42:02.436Z,10.40
2018-02-02T23:44:28.440Z,11.00
2018-02-02T23:46:54.445Z,11.37
2018-02-02T23:49:20.448Z,10.90
2018-02-02T23:51:52.356Z,10.67
2018-02-02T23:54:19.232Z,12.80
2018-02-02T23:56:45.291Z,12.20
2018-02-02T23:59:11.310Z,11.90
